createdAt,value
2023-05-10T00:00:24.732Z,4.80
2023-05-10T00:02:51.790Z,4.40
2023-05-10T00:05:19.665Z,4.30
2023-05-10T00:07:46.457Z,4.20
2023-05-10T00:10:13.535Z,4.80
2023-05-10T00:12:40.484Z,4.50
2023-05-10T00:15:08.563Z,5.30
2023-05-10T00:17:35.807Z,4.60
2023-05-10T00:20:03.077Z,5.10
2023-05-10T00:22:29.816Z,5.00
2023-05-10T00:24:56.666Z,5.00
2023-05-10T00:27:23.481Z,4.70
2023-05-10T00:29:50.369Z,4.70
2023-05-10T00:32:17.750Z,4.30
2023-05-10T00:34:44.594Z,4.80
2023-05-10T00:37:12.494Z,4.60
2023-05-10T00:39:39.301Z,4.70
2023-05-10T00:42:06.206Z,4.60
2023-05-10T00:44:33.909Z,5.10
2023-05-10T00:47:00.925Z,4.80
2023-05-10T00:49:27.939Z,5.20
2023-05-10T00:51:55.067Z,4.90
2023-05-10T00:54:22.294Z,5.40
2023-05-10T00:56:50.456Z,4.90
2023-05-10T00:59:18.918Z,4.60
2023-05-10T01:01:47.116Z,4.60
2023-05-10T01:04:14.768Z,5.40
2023-05-10T01:06:43.194Z,5.00
2023-05-10T01:09:10.901Z,5.20
2023-05-10T01:11:41.004Z,5.30
2023-05-10T01:14:08.151Z,5.40
2023-05-10T01:16:39.203Z,5.10
2023-05-10T01:19:17.334Z,5.50
2023-05-10T01:21:55.225Z,5.10
2023-05-10T01:24:40.419Z,8.30
2023-05-10T01:27:24.667Z,9.70
2023-05-10T01:30:22.767Z,4.90
2023-05-10T01:33:08.803Z,5.90
2023-05-10T01:35:44.190Z,5.30
2023-05-10T01:38:14.683Z,5.20
2023-05-10T01:41:04.059Z,5.60
2023-05-10T01:43:36.600Z,5.50
2023-05-10T01:46:17.683Z,9.20
2023-05-10T01:48:52.649Z,6.70
2023-05-10T01:51:24.866Z,5.10
2023-05-10T01:53:55.209Z,4.80
2023-05-10T01:56:27.200Z,5.10
2023-05-10T01:58:55.717Z,5.40
2023-05-10T02:01:23.759Z,5.90
2023-05-10T02:03:52.561Z,5.50
2023-05-10T02:06:22.623Z,5.60
2023-05-10T02:08:51.588Z,5.60
2023-05-10T02:11:22.532Z,5.20
2023-05-10T02:13:51.600Z,5.50
2023-05-10T02:16:21.980Z,5.40
2023-05-10T02:18:50.175Z,5.00
2023-05-10T02:21:18.577Z,8.70
2023-05-10T02:23:46.588Z,6.50
2023-05-10T02:26:14.998Z,6.10
2023-05-10T02:28:43.961Z,5.80
2023-05-10T02:31:11.756Z,5.70
2023-05-10T02:33:41.452Z,6.40
2023-05-10T02:36:10.183Z,5.10
2023-05-10T02:38:37.836Z,5.40
2023-05-10T02:41:06.940Z,4.60
2023-05-10T02:43:34.993Z,5.00
2023-05-10T02:46:02.386Z,4.70
2023-05-10T02:48:29.819Z,4.80
2023-05-10T02:51:01.868Z,4.40
2023-05-10T02:53:33.072Z,4.60
2023-05-10T02:56:05.242Z,4.60
2023-05-10T02:58:32.455Z,4.90
2023-05-10T03:00:59.382Z,5.50
2023-05-10T03:03:26.496Z,4.90
2023-05-10T03:05:56.897Z,5.00
2023-05-10T03:08:24.844Z,6.90
2023-05-10T03:11:05.343Z,5.50
2023-05-10T03:13:40.751Z,5.70
2023-05-10T03:16:15.608Z,5.30
2023-05-10T03:18:51.917Z,5.60
2023-05-10T03:21:19.957Z,5.00
2023-05-10T03:23:52.202Z,4.80
2023-05-10T03:26:24.724Z,5.30
2023-05-10T03:28:54.423Z,5.30
2023-05-10T03:31:22.146Z,5.70
2023-05-10T03:33:50.540Z,5.10
2023-05-10T03:36:20.092Z,5.00
2023-05-10T03:38:47.068Z,6.30
2023-05-10T03:41:14.961Z,7.30
2023-05-10T03:43:42.369Z,5.90
2023-05-10T03:46:09.172Z,6.50
2023-05-10T03:48:35.988Z,6.30
2023-05-10T03:51:03.212Z,6.60
2023-05-10T03:53:30.553Z,6.30
2023-05-10T03:55:57.554Z,6.70
2023-05-10T03:58:24.740Z,8.20
2023-05-10T04:00:53.251Z,8.80
2023-05-10T04:03:21.388Z,8.50
2023-05-10T04:05:48.363Z,8.90
2023-05-10T04:08:17.430Z,9.30
2023-05-10T04:10:44.651Z,11.20
2023-05-10T04:13:12.405Z,11.50
2023-05-10T04:15:39.171Z,11.50
2023-05-10T04:18:08.001Z,11.20
2023-05-10T04:20:35.555Z,10.90
2023-05-10T04:23:02.426Z,16.20
2023-05-10T04:25:29.289Z,14.60
2023-05-10T04:27:56.006Z,32.20
2023-05-10T04:30:22.752Z,24.40
2023-05-10T04:32:49.611Z,20.80
2023-05-10T04:35:16.581Z,60.80
2023-05-10T04:37:44.210Z,21.80
2023-05-10T04:40:11.545Z,27.80
2023-05-10T04:42:42.126Z,14.90
2023-05-10T04:45:10.734Z,11.10
2023-05-10T04:47:40.706Z,7.60
2023-05-10T04:50:08.343Z,7.90
2023-05-10T04:52:35.129Z,7.50
2023-05-10T04:55:01.926Z,7.10
2023-05-10T04:57:28.799Z,7.00
2023-05-10T04:59:55.566Z,5.50
2023-05-10T05:02:22.780Z,5.80
2023-05-10T05:04:49.836Z,6.40
2023-05-10T05:07:16.763Z,7.90
2023-05-10T05:09:43.614Z,10.70
2023-05-10T05:12:15.323Z,17.80
2023-05-10T05:14:42.417Z,7.70
2023-05-10T05:17:09.294Z,10.00
2023-05-10T05:19:36.766Z,6.50
2023-05-10T05:22:03.656Z,5.50
2023-05-10T05:24:30.626Z,4.80
2023-05-10T05:26:57.493Z,5.20
2023-05-10T05:29:24.257Z,5.30
2023-05-10T05:31:51.565Z,5.40
2023-05-10T05:34:21.551Z,5.10
2023-05-10T05:36:48.974Z,5.10
2023-05-10T05:39:15.809Z,4.80
2023-05-10T05:41:43.432Z,4.20
2023-05-10T05:44:11.114Z,4.10
2023-05-10T05:46:38.013Z,4.60
2023-05-10T05:49:04.789Z,5.00
2023-05-10T05:51:32.148Z,4.50
2023-05-10T05:53:58.984Z,3.90
2023-05-10T05:56:25.996Z,3.70
2023-05-10T05:58:52.747Z,4.20
2023-05-10T06:01:19.852Z,3.90
2023-05-10T06:03:46.924Z,3.60
2023-05-10T06:06:14.425Z,3.90
2023-05-10T06:08:41.337Z,3.10
2023-05-10T06:11:08.119Z,3.00
2023-05-10T06:13:36.393Z,2.60
2023-05-10T06:16:04.442Z,2.80
2023-05-10T06:18:31.508Z,2.50
2023-05-10T06:20:58.572Z,3.10
2023-05-10T06:23:28.763Z,2.80
2023-05-10T06:25:55.596Z,2.80
2023-05-10T06:28:22.373Z,3.30
2023-05-10T06:30:49.177Z,3.10
2023-05-10T06:33:17.235Z,2.70
2023-05-10T06:35:44.111Z,2.30
2023-05-10T06:38:11.010Z,2.40
2023-05-10T06:40:37.787Z,2.60
2023-05-10T06:43:04.615Z,5.90
2023-05-10T06:45:31.455Z,2.90
2023-05-10T06:47:58.329Z,2.70
2023-05-10T06:50:25.647Z,2.50
2023-05-10T06:52:53.246Z,2.50
2023-05-10T06:55:20.938Z,2.40
2023-05-10T06:57:48.680Z,2.00
2023-05-10T07:00:16.342Z,2.30
2023-05-10T07:02:43.701Z,1.80
2023-05-10T07:05:10.488Z,1.90
2023-05-10T07:07:37.389Z,2.10
2023-05-10T07:10:04.638Z,1.80
2023-05-10T07:12:31.542Z,2.00
2023-05-10T07:14:58.431Z,2.00
2023-05-10T07:17:25.826Z,10.30
2023-05-10T07:19:53.035Z,1.90
2023-05-10T07:22:19.822Z,2.00
2023-05-10T07:24:47.364Z,2.60
2023-05-10T07:27:14.321Z,2.40
2023-05-10T07:29:41.214Z,1.90
2023-05-10T07:32:08.075Z,2.90
2023-05-10T07:34:35.036Z,2.00
2023-05-10T07:37:02.291Z,1.90
2023-05-10T07:39:29.114Z,2.20
2023-05-10T07:41:56.515Z,1.90
2023-05-10T07:44:23.646Z,3.00
2023-05-10T07:46:50.707Z,1.80
2023-05-10T07:49:17.686Z,1.60
2023-05-10T07:51:44.766Z,1.60
2023-05-10T07:54:11.742Z,1.90
2023-05-10T07:56:38.618Z,2.10
2023-05-10T07:59:07.464Z,1.60
2023-05-10T08:01:35.969Z,1.80
2023-05-10T08:04:05.420Z,1.80
2023-05-10T08:06:33.110Z,1.90
2023-05-10T08:09:00.158Z,1.80
2023-05-10T08:11:29.331Z,1.60
2023-05-10T08:13:56.127Z,1.80
2023-05-10T08:16:23.237Z,1.30
2023-05-10T08:18:51.862Z,1.60
2023-05-10T08:21:18.980Z,1.40
2023-05-10T08:23:45.975Z,1.40
2023-05-10T08:26:12.943Z,2.00
2023-05-10T08:28:39.836Z,1.70
2023-05-10T08:31:06.794Z,1.60
2023-05-10T08:33:33.946Z,1.60
2023-05-10T08:36:01.340Z,1.60
2023-05-10T08:38:28.220Z,1.60
2023-05-10T08:41:00.108Z,1.70
2023-05-10T08:43:30.411Z,1.40
2023-05-10T08:46:01.080Z,1.60
2023-05-10T08:48:30.565Z,1.50
2023-05-10T08:50:59.955Z,1.30
2023-05-10T08:53:28.332Z,1.70
2023-05-10T08:55:55.573Z,1.50
2023-05-10T08:58:22.858Z,1.40
2023-05-10T09:00:52.571Z,1.20
2023-05-10T09:03:19.568Z,1.40
2023-05-10T09:05:46.894Z,1.30
2023-05-10T09:08:15.554Z,1.40
2023-05-10T09:10:44.444Z,1.20
2023-05-10T09:13:12.907Z,1.40
2023-05-10T09:15:40.059Z,1.80
2023-05-10T09:18:07.128Z,1.80
2023-05-10T09:20:33.888Z,1.60
2023-05-10T09:23:00.742Z,1.80
2023-05-10T09:25:28.078Z,1.70
2023-05-10T09:27:55.976Z,2.20
2023-05-10T09:30:28.814Z,1.70
2023-05-10T09:32:56.998Z,2.90
2023-05-10T09:35:29.463Z,2.10
2023-05-10T09:37:59.038Z,2.00
2023-05-10T09:40:27.918Z,1.60
2023-05-10T09:42:58.446Z,1.40
2023-05-10T09:45:27.386Z,1.80
2023-05-10T09:47:55.150Z,1.90
2023-05-10T09:50:23.269Z,1.80
2023-05-10T09:52:50.160Z,1.90
2023-05-10T09:55:18.728Z,2.00
2023-05-10T09:57:46.588Z,1.80
2023-05-10T10:00:19.022Z,1.90
2023-05-10T10:02:56.737Z,2.00
2023-05-10T10:05:30.051Z,1.80
2023-05-10T10:07:59.094Z,1.70
2023-05-10T10:10:26.885Z,1.90
2023-05-10T10:12:54.664Z,1.60
2023-05-10T10:15:23.337Z,1.80
2023-05-10T10:17:51.957Z,1.70
2023-05-10T10:20:20.632Z,2.10
2023-05-10T10:22:48.185Z,1.80
2023-05-10T10:25:17.129Z,1.90
2023-05-10T10:27:55.043Z,1.60
2023-05-10T10:30:45.968Z,1.70
2023-05-10T10:33:44.822Z,1.90
2023-05-10T10:36:13.830Z,1.70
2023-05-10T10:38:47.942Z,1.80
2023-05-10T10:41:32.040Z,1.60
2023-05-10T10:44:30.437Z,2.90
2023-05-10T10:47:19.919Z,6.20
2023-05-10T10:50:02.764Z,2.00
2023-05-10T10:52:34.119Z,1.90
2023-05-10T10:55:20.197Z,1.70
2023-05-10T10:57:48.248Z,1.90
2023-05-10T11:00:32.992Z,1.70
2023-05-10T11:03:19.761Z,1.60
2023-05-10T11:05:49.231Z,1.50
2023-05-10T11:08:34.046Z,1.70
2023-05-10T11:11:04.432Z,1.40
2023-05-10T11:13:35.277Z,1.60
2023-05-10T11:16:17.215Z,2.00
2023-05-10T11:19:02.793Z,1.80
2023-05-10T11:21:31.950Z,1.70
2023-05-10T11:24:00.633Z,1.50
2023-05-10T11:26:32.821Z,1.50
2023-05-10T11:29:02.765Z,1.60
2023-05-10T11:31:30.517Z,2.10
2023-05-10T11:33:59.388Z,2.00
2023-05-10T11:36:28.930Z,1.70
2023-05-10T11:38:57.143Z,3.30
2023-05-10T11:41:25.501Z,1.80
2023-05-10T11:43:54.179Z,1.60
2023-05-10T11:46:23.364Z,2.00
2023-05-10T11:48:52.095Z,1.60
2023-05-10T11:51:23.872Z,1.70
2023-05-10T11:53:53.579Z,2.00
2023-05-10T11:56:22.017Z,1.80
2023-05-10T11:58:56.271Z,1.80
2023-05-10T12:01:25.406Z,1.60
2023-05-10T12:03:54.914Z,1.50
2023-05-10T12:06:22.833Z,1.50
2023-05-10T12:08:54.660Z,1.80
2023-05-10T12:11:26.785Z,1.40
2023-05-10T12:13:55.764Z,1.60
2023-05-10T12:16:24.898Z,5.60
2023-05-10T12:18:53.949Z,1.80
2023-05-10T12:21:22.287Z,2.00
2023-05-10T12:23:54.330Z,1.90
2023-05-10T12:26:26.017Z,1.40
2023-05-10T12:28:54.584Z,1.80
2023-05-10T12:31:22.016Z,1.50
2023-05-10T12:33:50.469Z,1.90
2023-05-10T12:36:19.030Z,1.70
2023-05-10T12:38:49.115Z,1.60
2023-05-10T12:41:18.110Z,1.50
2023-05-10T12:43:46.588Z,1.50
2023-05-10T12:46:15.757Z,1.40
2023-05-10T12:48:44.050Z,1.60
2023-05-10T12:51:12.932Z,1.20
2023-05-10T12:53:41.511Z,1.30
2023-05-10T12:56:10.345Z,1.80
2023-05-10T12:58:37.168Z,1.40
2023-05-10T13:01:05.208Z,1.40
2023-05-10T13:03:32.169Z,1.60
2023-05-10T13:05:59.149Z,1.50
2023-05-10T13:08:26.307Z,1.40
2023-05-10T13:10:53.452Z,1.60
2023-05-10T13:13:20.433Z,1.70
2023-05-10T13:15:47.556Z,5.10
2023-05-10T13:18:14.582Z,2.50
2023-05-10T13:20:41.743Z,1.80
2023-05-10T13:23:08.614Z,1.60
2023-05-10T13:25:35.902Z,1.50
2023-05-10T13:28:03.596Z,1.50
2023-05-10T13:30:30.994Z,1.90
2023-05-10T13:32:57.997Z,1.40
2023-05-10T13:35:24.862Z,1.60
2023-05-10T13:37:52.000Z,1.60
2023-05-10T13:40:19.057Z,1.60
2023-05-10T13:42:46.458Z,1.60
2023-05-10T13:45:14.415Z,1.60
2023-05-10T13:47:41.364Z,1.60
2023-05-10T13:50:08.775Z,1.90
2023-05-10T13:52:36.319Z,1.50
2023-05-10T13:55:03.928Z,1.60
2023-05-10T13:57:31.361Z,1.60
2023-05-10T13:59:58.821Z,1.40
2023-05-10T14:02:26.410Z,1.50
2023-05-10T14:04:53.337Z,1.60
2023-05-10T14:07:20.408Z,1.70
2023-05-10T14:09:47.409Z,1.50
2023-05-10T14:12:16.419Z,2.30
2023-05-10T14:14:43.315Z,1.90
2023-05-10T14:17:12.229Z,1.60
2023-05-10T14:19:40.077Z,1.70
2023-05-10T14:22:07.125Z,1.50
2023-05-10T14:24:34.003Z,1.70
2023-05-10T14:27:01.306Z,1.80
2023-05-10T14:29:28.373Z,1.90
2023-05-10T14:31:55.555Z,1.80
2023-05-10T14:34:22.456Z,2.50
2023-05-10T14:36:49.420Z,2.30
2023-05-10T14:39:16.632Z,1.80
2023-05-10T14:41:45.526Z,1.60
2023-05-10T14:44:12.425Z,1.70
2023-05-10T14:46:40.572Z,1.80
2023-05-10T14:49:23.854Z,1.70
2023-05-10T14:51:51.134Z,1.90
2023-05-10T14:54:17.965Z,1.80
2023-05-10T14:56:45.548Z,1.70
2023-05-10T14:59:12.326Z,1.80
2023-05-10T15:01:42.310Z,1.90
2023-05-10T15:04:09.917Z,1.90
2023-05-10T15:06:37.952Z,1.80
2023-05-10T15:09:04.891Z,1.90
2023-05-10T15:11:31.963Z,2.00
2023-05-10T15:13:58.843Z,2.00
2023-05-10T15:16:26.063Z,1.70
2023-05-10T15:18:53.332Z,2.10
2023-05-10T15:21:20.164Z,1.90
2023-05-10T15:23:47.154Z,2.40
2023-05-10T15:26:13.970Z,2.70
2023-05-10T15:28:40.880Z,2.10
2023-05-10T15:31:07.931Z,2.60
2023-05-10T15:33:34.875Z,1.80
2023-05-10T15:36:01.943Z,2.70
2023-05-10T15:38:28.751Z,2.20
2023-05-10T15:40:58.743Z,2.70
2023-05-10T15:43:25.754Z,1.90
2023-05-10T15:45:52.575Z,1.80
2023-05-10T15:48:19.470Z,2.40
2023-05-10T15:50:46.307Z,1.90
2023-05-10T15:53:13.252Z,1.90
2023-05-10T15:55:40.281Z,2.90
2023-05-10T15:58:07.227Z,3.40
2023-05-10T16:00:34.201Z,2.30
2023-05-10T16:03:01.236Z,1.80
2023-05-10T16:05:32.161Z,1.80
2023-05-10T16:08:00.064Z,2.00
2023-05-10T16:10:29.292Z,2.00
2023-05-10T16:12:56.260Z,2.00
2023-05-10T16:15:23.167Z,1.80
2023-05-10T16:17:50.366Z,2.50
2023-05-10T16:20:17.408Z,2.30
2023-05-10T16:22:44.682Z,1.90
2023-05-10T16:25:13.571Z,2.00
2023-05-10T16:27:40.933Z,1.80
2023-05-10T16:30:08.726Z,1.80
2023-05-10T16:32:35.705Z,2.00
2023-05-10T16:35:02.849Z,1.90
2023-05-10T16:37:29.744Z,2.10
2023-05-10T16:39:56.947Z,2.20
2023-05-10T16:42:25.191Z,2.20
2023-05-10T16:44:52.110Z,2.10
2023-05-10T16:47:18.950Z,1.90
2023-05-10T16:49:46.044Z,2.20
2023-05-10T16:52:13.062Z,2.10
2023-05-10T16:54:39.897Z,1.90
2023-05-10T16:57:06.864Z,1.80
2023-05-10T16:59:33.967Z,2.00
2023-05-10T17:02:00.866Z,2.00
2023-05-10T17:04:28.078Z,1.80
2023-05-10T17:06:56.010Z,2.20
2023-05-10T17:09:22.903Z,1.70
2023-05-10T17:11:49.947Z,2.30
2023-05-10T17:14:16.757Z,2.80
2023-05-10T17:16:43.672Z,2.70
2023-05-10T17:19:10.685Z,2.90
2023-05-10T17:21:38.625Z,3.20
2023-05-10T17:24:05.683Z,3.10
2023-05-10T17:26:32.724Z,3.00
2023-05-10T17:28:59.686Z,3.10
2023-05-10T17:31:28.416Z,3.10
2023-05-10T17:33:56.918Z,3.00
2023-05-10T17:36:23.785Z,3.00
2023-05-10T17:38:50.701Z,2.90
2023-05-10T17:41:20.538Z,2.70
2023-05-10T17:43:47.811Z,2.50
2023-05-10T17:46:15.616Z,2.60
2023-05-10T17:48:42.775Z,2.20
2023-05-10T17:51:12.715Z,2.40
2023-05-10T17:53:42.046Z,2.20
2023-05-10T17:56:09.735Z,2.50
2023-05-10T17:58:39.896Z,2.30
2023-05-10T18:01:06.805Z,2.30
2023-05-10T18:03:35.992Z,2.40
2023-05-10T18:06:04.601Z,2.60
2023-05-10T18:08:33.825Z,2.40
2023-05-10T18:11:01.237Z,2.40
2023-05-10T18:13:28.250Z,2.20
2023-05-10T18:15:56.647Z,2.10
2023-05-10T18:18:25.481Z,2.00
2023-05-10T18:20:56.754Z,2.30
2023-05-10T18:23:24.953Z,2.00
2023-05-10T18:25:52.237Z,1.90
2023-05-10T18:28:19.166Z,2.10
2023-05-10T18:30:46.601Z,2.10
2023-05-10T18:33:14.409Z,2.40
2023-05-10T18:35:42.113Z,2.20
2023-05-10T18:38:09.993Z,2.10
2023-05-10T18:40:37.407Z,2.40
2023-05-10T18:43:04.592Z,1.90
2023-05-10T18:45:31.958Z,2.00
2023-05-10T18:47:59.050Z,2.40
2023-05-10T18:50:26.011Z,2.40
2023-05-10T18:52:52.976Z,2.30
2023-05-10T18:55:20.058Z,2.60
2023-05-10T18:57:47.078Z,2.70
2023-05-10T19:00:14.679Z,2.60
2023-05-10T19:02:41.815Z,2.70
2023-05-10T19:05:09.634Z,2.70
2023-05-10T19:07:36.505Z,2.90
2023-05-10T19:10:03.572Z,2.80
2023-05-10T19:12:30.635Z,2.70
2023-05-10T19:14:57.446Z,2.80
2023-05-10T19:17:26.002Z,2.40
2023-05-10T19:19:54.396Z,2.40
2023-05-10T19:22:36.133Z,2.90
2023-05-10T19:25:10.984Z,2.80
2023-05-10T19:27:37.853Z,3.00
2023-05-10T19:30:06.044Z,3.10
2023-05-10T19:32:32.766Z,2.80
2023-05-10T19:34:59.662Z,2.80
2023-05-10T19:37:27.492Z,3.20
2023-05-10T19:39:54.244Z,2.70
2023-05-10T19:42:21.220Z,2.60
2023-05-10T19:44:48.196Z,2.20
2023-05-10T19:47:15.233Z,3.30
2023-05-10T19:49:44.353Z,2.80
2023-05-10T19:52:12.046Z,2.80
2023-05-10T19:54:38.768Z,2.70
2023-05-10T19:57:06.716Z,2.90
2023-05-10T19:59:33.539Z,2.70
2023-05-10T20:02:00.624Z,2.70
2023-05-10T20:04:28.889Z,3.00
2023-05-10T20:06:55.814Z,2.80
2023-05-10T20:09:22.595Z,3.20
2023-05-10T20:11:49.474Z,2.80
2023-05-10T20:14:16.585Z,2.80
2023-05-10T20:16:43.463Z,3.00
2023-05-10T20:19:11.866Z,2.90
2023-05-10T20:21:39.028Z,2.90
2023-05-10T20:24:07.826Z,2.60
2023-05-10T20:26:34.608Z,2.80
2023-05-10T20:29:01.329Z,3.10
2023-05-10T20:31:28.245Z,2.70
2023-05-10T20:33:54.994Z,2.90
2023-05-10T20:36:21.767Z,2.90
2023-05-10T20:38:48.459Z,2.80
2023-05-10T20:41:15.231Z,2.80
2023-05-10T20:43:42.400Z,2.50
2023-05-10T20:46:09.184Z,2.80
2023-05-10T20:48:36.157Z,2.80
2023-05-10T20:51:03.333Z,2.80
2023-05-10T20:53:30.276Z,3.00
2023-05-10T20:55:57.063Z,3.10
2023-05-10T20:58:23.955Z,2.80
2023-05-10T21:00:50.891Z,3.00
2023-05-10T21:03:17.753Z,3.40
2023-05-10T21:05:44.496Z,3.20
2023-05-10T21:08:11.280Z,3.30
2023-05-10T21:10:38.121Z,3.20
2023-05-10T21:13:05.336Z,3.10
2023-05-10T21:15:32.306Z,3.50
2023-05-10T21:17:59.930Z,3.00
2023-05-10T21:20:27.006Z,3.30
2023-05-10T21:22:53.713Z,2.60
2023-05-10T21:25:21.696Z,3.10
2023-05-10T21:27:48.489Z,3.30
2023-05-10T21:30:15.424Z,3.10
2023-05-10T21:32:42.656Z,3.70
2023-05-10T21:35:09.675Z,3.40
2023-05-10T21:37:36.426Z,3.40
2023-05-10T21:40:04.894Z,3.50
2023-05-10T21:42:32.076Z,3.30
2023-05-10T21:44:58.923Z,3.70
2023-05-10T21:47:25.653Z,3.80
2023-05-10T21:49:52.415Z,3.40
2023-05-10T21:52:19.207Z,3.70
2023-05-10T21:54:46.026Z,3.90
2023-05-10T21:57:12.877Z,3.60
2023-05-10T21:59:40.512Z,3.00
2023-05-10T22:02:07.602Z,3.60
2023-05-10T22:04:34.913Z,3.90
2023-05-10T22:07:01.730Z,3.60
2023-05-10T22:09:28.621Z,4.10
2023-05-10T22:11:55.413Z,3.30
2023-05-10T22:14:23.033Z,3.70
2023-05-10T22:16:50.056Z,3.70
2023-05-10T22:19:17.016Z,3.70
2023-05-10T22:21:43.867Z,3.70
2023-05-10T22:24:10.648Z,3.60
2023-05-10T22:26:37.490Z,3.60
2023-05-10T22:29:04.957Z,3.50
2023-05-10T22:31:32.048Z,4.20
2023-05-10T22:33:59.161Z,4.30
2023-05-10T22:36:25.908Z,4.30
2023-05-10T22:38:52.735Z,4.30
2023-05-10T22:41:19.511Z,4.80
2023-05-10T22:43:46.420Z,4.60
2023-05-10T22:46:13.450Z,4.80
2023-05-10T22:48:41.553Z,4.40
2023-05-10T22:51:08.340Z,5.10
2023-05-10T22:53:35.150Z,4.90
2023-05-10T22:56:02.396Z,4.90
2023-05-10T22:58:29.153Z,5.30
2023-05-10T23:00:56.082Z,4.90
2023-05-10T23:03:22.950Z,4.80
2023-05-10T23:05:49.703Z,4.90
2023-05-10T23:08:16.634Z,4.90
2023-05-10T23:10:43.485Z,5.80
2023-05-10T23:13:10.187Z,5.50
2023-05-10T23:15:37.462Z,5.20
2023-05-10T23:18:06.078Z,5.40
2023-05-10T23:20:33.154Z,5.50
2023-05-10T23:22:59.883Z,5.40
2023-05-10T23:25:26.693Z,5.80
2023-05-10T23:27:53.429Z,5.80
2023-05-10T23:30:20.181Z,5.30
2023-05-10T23:32:47.149Z,4.80
2023-05-10T23:35:13.920Z,4.90
2023-05-10T23:37:42.510Z,4.90
2023-05-10T23:40:10.063Z,4.60
2023-05-10T23:42:36.957Z,5.20
2023-05-10T23:45:04.751Z,4.50
2023-05-10T23:47:31.596Z,4.90
2023-05-10T23:49:58.585Z,4.30
2023-05-10T23:52:26.019Z,4.80
2023-05-10T23:54:53.528Z,5.00
2023-05-10T23:57:20.831Z,4.30
2023-05-10T23:59:47.723Z,4.00
